createdAt,value
2022-10-25T00:02:30.144Z,8.83
2022-10-25T00:04:59.977Z,7.20
2022-10-25T00:07:29.799Z,9.43
2022-10-25T00:09:59.567Z,10.27
2022-10-25T00:12:29.404Z,8.20
2022-10-25T00:15:04.124Z,13.20
2022-10-25T00:17:34.823Z,7.87
2022-10-25T00:20:06.512Z,15.17
2022-10-25T00:22:36.551Z,6.83
2022-10-25T00:25:09.590Z,8.22
2022-10-25T00:27:39.502Z,7.80
2022-10-25T00:30:11.800Z,12.85
2022-10-25T00:32:41.607Z,11.10
2022-10-25T00:35:11.382Z,11.02
2022-10-25T00:37:41.148Z,12.27
2022-10-25T00:40:11.881Z,8.58
2022-10-25T00:42:41.721Z,11.87
2022-10-25T00:45:26.375Z,14.80
2022-10-25T00:48:05.086Z,12.80
2022-10-25T00:50:43.563Z,8.70
2022-10-25T00:53:16.733Z,7.92
2022-10-25T00:55:49.532Z,10.97
2022-10-25T00:58:22.400Z,12.03
2022-10-25T01:00:52.215Z,12.70
2022-10-25T01:03:24.100Z,12.07
2022-10-25T01:05:54.712Z,12.40
2022-10-25T01:08:25.306Z,13.38
2022-10-25T01:10:55.105Z,9.70
2022-10-25T01:13:25.021Z,10.13
2022-10-25T01:15:57.811Z,10.77
2022-10-25T01:18:48.226Z,11.80
2022-10-25T01:21:32.551Z,14.30
2022-10-25T01:24:11.102Z,10.07
2022-10-25T01:26:49.629Z,13.30
2022-10-25T01:29:41.359Z,8.45
2022-10-25T01:32:20.857Z,14.22
2022-10-25T01:35:12.017Z,15.60
2022-10-25T01:38:00.823Z,15.23
2022-10-25T01:40:36.054Z,10.73
2022-10-25T01:43:17.690Z,11.27
2022-10-25T01:45:50.119Z,15.73
2022-10-25T01:48:25.698Z,18.45
2022-10-25T01:50:55.213Z,12.13
2022-10-25T01:53:24.984Z,10.93
2022-10-25T01:55:57.751Z,14.20
2022-10-25T01:58:33.263Z,16.70
2022-10-25T02:01:21.013Z,11.87
2022-10-25T02:04:08.401Z,18.03
2022-10-25T02:06:41.525Z,11.88
2022-10-25T02:09:20.091Z,14.97
2022-10-25T02:11:51.385Z,16.17
2022-10-25T02:14:26.562Z,13.90
2022-10-25T02:17:05.014Z,16.30
2022-10-25T02:19:37.524Z,18.23
2022-10-25T02:24:52.511Z,16.62
2022-10-25T02:27:24.510Z,16.45
2022-10-25T02:29:55.719Z,15.23
2022-10-25T02:32:26.282Z,17.87
2022-10-25T02:34:56.083Z,19.63
2022-10-25T02:37:25.895Z,14.03
2022-10-25T02:39:56.080Z,14.83
2022-10-25T02:42:25.528Z,14.13
2022-10-25T02:44:55.124Z,16.00
2022-10-25T02:47:24.949Z,19.13
2022-10-25T02:49:54.684Z,19.37
2022-10-25T02:52:24.135Z,17.15
2022-10-25T02:54:53.850Z,18.20
2022-10-25T02:57:23.592Z,15.97
2022-10-25T02:59:53.065Z,15.25
2022-10-25T03:02:22.799Z,20.00
2022-10-25T03:04:52.564Z,14.50
2022-10-25T03:07:22.649Z,16.32
2022-10-25T03:09:52.670Z,15.35
2022-10-25T03:12:22.125Z,19.37
2022-10-25T03:14:51.863Z,14.13
2022-10-25T03:17:21.636Z,12.70
2022-10-25T03:19:51.714Z,13.22
2022-10-25T03:22:21.237Z,23.37
2022-10-25T03:24:51.021Z,15.93
2022-10-25T03:27:20.761Z,15.43
2022-10-25T03:29:50.296Z,10.90
2022-10-25T03:32:20.052Z,13.48
2022-10-25T03:34:49.834Z,13.57
2022-10-25T03:37:19.566Z,15.07
2022-10-25T03:39:49.628Z,11.12
2022-10-25T03:42:19.311Z,10.67
2022-10-25T03:44:49.306Z,10.00
2022-10-25T03:47:19.323Z,12.97
2022-10-25T03:49:49.059Z,13.60
2022-10-25T03:52:18.841Z,17.73
2022-10-25T03:54:48.592Z,12.43
2022-10-25T03:57:18.558Z,12.73
2022-10-25T03:59:48.702Z,16.10
2022-10-25T04:02:18.244Z,16.60
2022-10-25T04:04:47.991Z,12.50
2022-10-25T04:07:17.807Z,14.90
2022-10-25T04:09:47.894Z,11.63
2022-10-25T04:12:17.506Z,9.25
2022-10-25T04:14:47.593Z,15.58
2022-10-25T04:17:17.625Z,9.78
2022-10-25T04:19:47.385Z,14.60
2022-10-25T04:22:17.115Z,12.93
2022-10-25T04:24:47.220Z,15.63
2022-10-25T04:27:17.025Z,10.63
2022-10-25T04:29:46.846Z,10.67
2022-10-25T04:32:16.601Z,11.30
2022-10-25T04:34:46.511Z,9.73
2022-10-25T04:37:16.590Z,12.37
2022-10-25T04:39:46.651Z,13.60
2022-10-25T04:42:17.583Z,9.07
2022-10-25T04:44:47.613Z,10.98
2022-10-25T04:47:17.681Z,8.80
2022-10-25T04:49:47.701Z,10.43
2022-10-25T04:52:17.374Z,15.00
2022-10-25T04:54:47.070Z,8.43
2022-10-25T04:57:16.844Z,10.93
2022-10-25T04:59:46.653Z,11.63
2022-10-25T05:02:16.770Z,13.35
2022-10-25T05:04:46.573Z,10.67
2022-10-25T05:07:20.955Z,14.20
2022-10-25T05:09:50.694Z,10.90
2022-10-25T05:12:20.436Z,9.30
2022-10-25T05:14:50.523Z,9.45
2022-10-25T05:17:20.561Z,10.30
2022-10-25T05:19:50.645Z,7.58
2022-10-25T05:22:20.185Z,10.47
2022-10-25T05:24:50.307Z,11.10
2022-10-25T05:27:20.322Z,9.40
2022-10-25T05:29:50.058Z,13.97
2022-10-25T05:32:19.520Z,9.57
2022-10-25T05:34:49.273Z,8.80
2022-10-25T05:37:19.023Z,10.03
2022-10-25T05:39:48.807Z,7.40
2022-10-25T05:42:18.589Z,7.20
2022-10-25T05:44:48.637Z,8.45
2022-10-25T05:47:18.742Z,8.83
2022-10-25T05:49:48.795Z,7.72
2022-10-25T05:52:18.252Z,8.63
2022-10-25T05:54:48.026Z,12.50
2022-10-25T05:57:17.841Z,7.57
2022-10-25T05:59:47.317Z,7.20
2022-10-25T06:02:17.282Z,7.08
2022-10-25T06:04:51.603Z,4.87
2022-10-25T06:07:18.563Z,17.40
2022-10-25T06:09:48.619Z,14.58
2022-10-25T06:12:18.056Z,9.23
2022-10-25T06:14:47.832Z,14.97
2022-10-25T06:17:17.581Z,9.23
2022-10-25T06:19:47.688Z,12.78
2022-10-25T06:22:17.453Z,11.48
2022-10-25T06:24:47.212Z,15.07
2022-10-25T06:27:16.954Z,10.47
2022-10-25T06:29:46.697Z,8.87
2022-10-25T06:32:16.184Z,10.07
2022-10-25T06:34:45.934Z,13.07
2022-10-25T06:37:16.044Z,11.60
2022-10-25T06:39:45.783Z,12.10
2022-10-25T06:42:15.239Z,13.73
2022-10-25T06:44:45.571Z,12.88
2022-10-25T06:47:17.896Z,12.85
2022-10-25T06:49:47.331Z,10.67
2022-10-25T06:52:17.082Z,12.63
2022-10-25T06:54:46.834Z,11.10
2022-10-25T06:57:16.650Z,10.23
2022-10-25T06:59:46.400Z,13.37
2022-10-25T07:02:16.513Z,14.20
2022-10-25T07:04:46.381Z,13.63
2022-10-25T07:07:16.218Z,13.40
2022-10-25T07:09:45.970Z,14.40
2022-10-25T07:12:15.522Z,13.58
2022-10-25T07:14:45.437Z,14.50
2022-10-25T07:17:15.174Z,14.03
2022-10-25T07:19:44.907Z,16.17
2022-10-25T07:22:14.369Z,18.55
2022-10-25T07:24:44.110Z,16.07
2022-10-25T07:27:13.858Z,12.43
2022-10-25T07:29:44.343Z,14.20
2022-10-25T07:32:14.096Z,17.15
2022-10-25T07:34:43.924Z,16.13
2022-10-25T07:37:13.697Z,10.20
2022-10-25T07:39:43.349Z,13.40
2022-10-25T07:42:13.081Z,15.72
2022-10-25T07:44:42.868Z,15.57
2022-10-25T07:47:12.694Z,9.23
2022-10-25T07:49:42.430Z,12.00
2022-10-25T07:52:12.177Z,14.20
2022-10-25T07:57:11.773Z,16.60
2022-10-25T07:59:41.527Z,13.93
2022-10-25T08:02:13.104Z,18.67
2022-10-25T08:04:44.146Z,12.73
2022-10-25T08:07:14.183Z,15.65
2022-10-25T08:09:43.943Z,12.87
2022-10-25T08:12:13.776Z,14.68
2022-10-25T08:14:46.222Z,13.13
2022-10-25T08:17:16.430Z,15.80
2022-10-25T08:19:50.942Z,14.03
2022-10-25T08:22:17.655Z,17.00
2022-10-25T08:24:47.735Z,16.82
2022-10-25T08:27:17.504Z,16.70
2022-10-25T08:29:47.451Z,19.87
2022-10-25T08:32:17.687Z,19.63
2022-10-25T08:34:47.454Z,19.40
2022-10-25T08:37:17.204Z,24.23
2022-10-25T08:39:46.973Z,19.60
2022-10-25T08:42:19.825Z,23.40
2022-10-25T08:44:58.643Z,21.93
2022-10-25T08:47:53.009Z,21.90
2022-10-25T08:50:25.855Z,22.35
2022-10-25T08:52:59.324Z,20.70
2022-10-25T08:55:41.575Z,23.70
2022-10-25T08:58:19.970Z,24.70
2022-10-25T09:00:50.669Z,22.50
2022-10-25T09:03:26.145Z,25.62
2022-10-25T09:06:07.497Z,18.87
2022-10-25T09:08:46.215Z,16.60
2022-10-25T09:11:39.729Z,27.20
2022-10-25T09:14:16.779Z,19.90
2022-10-25T09:16:51.953Z,19.37
2022-10-25T09:19:42.634Z,19.07
2022-10-25T09:22:17.992Z,19.20
2022-10-25T09:25:05.099Z,18.57
2022-10-25T09:27:40.069Z,16.63
2022-10-25T09:30:13.401Z,18.00
2022-10-25T09:32:51.744Z,20.27
2022-10-25T09:35:30.773Z,17.12
2022-10-25T09:38:03.337Z,18.85
2022-10-25T09:40:47.220Z,19.40
2022-10-25T09:43:17.345Z,17.87
2022-10-25T09:45:50.133Z,25.73
2022-10-25T09:48:31.414Z,17.67
2022-10-25T09:51:13.159Z,19.53
2022-10-25T09:53:44.944Z,18.27
2022-10-25T09:56:16.380Z,19.23
2022-10-25T09:58:48.460Z,16.47
2022-10-25T10:01:24.341Z,14.15
2022-10-25T10:03:56.850Z,21.93
2022-10-25T10:06:29.404Z,18.48
2022-10-25T10:09:05.032Z,20.33
2022-10-25T10:11:36.745Z,17.62
2022-10-25T10:14:20.970Z,16.20
2022-10-25T10:16:54.433Z,14.37
2022-10-25T10:19:32.150Z,17.30
2022-10-25T10:22:04.474Z,16.43
2022-10-25T10:24:38.620Z,12.60
2022-10-25T10:27:22.908Z,15.20
2022-10-25T10:30:01.622Z,13.73
2022-10-25T10:32:34.103Z,15.35
2022-10-25T10:35:06.416Z,16.60
2022-10-25T10:37:37.818Z,14.23
2022-10-25T10:40:12.452Z,14.57
2022-10-25T10:42:42.700Z,15.87
2022-10-25T10:45:17.477Z,16.40
2022-10-25T10:47:56.234Z,10.47
2022-10-25T10:50:32.681Z,11.15
2022-10-25T10:53:22.561Z,11.57
2022-10-25T10:55:57.789Z,21.68
2022-10-25T10:58:31.746Z,10.30
2022-10-25T11:01:10.098Z,9.57
2022-10-25T11:03:59.077Z,11.77
2022-10-25T11:06:35.782Z,10.08
2022-10-25T11:09:20.288Z,13.03
2022-10-25T11:12:10.357Z,10.73
2022-10-25T11:14:40.177Z,13.63
2022-10-25T11:17:18.424Z,12.63
2022-10-25T11:19:59.909Z,13.23
2022-10-25T11:22:35.373Z,13.00
2022-10-25T11:25:34.887Z,10.93
2022-10-25T11:28:29.468Z,13.90
2022-10-25T11:31:10.812Z,8.47
2022-10-25T11:34:07.872Z,10.07
2022-10-25T11:36:48.956Z,9.67
2022-10-25T11:39:33.802Z,9.53
2022-10-25T11:42:21.382Z,10.70
2022-10-25T11:45:02.826Z,8.23
2022-10-25T11:47:44.640Z,8.75
2022-10-25T11:50:29.534Z,6.18
2022-10-25T11:53:02.321Z,11.83
2022-10-25T11:55:52.614Z,7.37
2022-10-25T11:58:59.264Z,8.63
2022-10-25T12:01:31.928Z,11.20
2022-10-25T12:04:04.794Z,9.60
2022-10-25T12:06:46.514Z,8.03
2022-10-25T12:09:36.637Z,8.60
2022-10-25T12:12:13.779Z,5.15
2022-10-25T12:14:46.320Z,9.60
2022-10-25T12:17:31.142Z,7.43
2022-10-25T12:20:04.054Z,9.43
2022-10-25T12:22:46.055Z,12.20
2022-10-25T12:25:21.544Z,6.33
2022-10-25T12:27:59.125Z,5.92
2022-10-25T12:30:29.913Z,10.53
2022-10-25T12:33:02.770Z,10.13
2022-10-25T12:35:35.563Z,10.63
2022-10-25T12:38:09.470Z,10.87
2022-10-25T12:40:42.741Z,7.40
2022-10-25T12:43:18.747Z,11.22
2022-10-25T12:46:02.981Z,8.00
2022-10-25T12:48:56.215Z,11.60
2022-10-25T12:51:46.887Z,6.58
2022-10-25T12:54:31.435Z,7.33
2022-10-25T12:57:06.874Z,7.05
2022-10-25T12:59:45.505Z,5.33
2022-10-25T13:02:32.994Z,4.93
2022-10-25T13:05:08.235Z,15.27
2022-10-25T13:07:39.602Z,7.80
2022-10-25T13:13:07.656Z,7.30
2022-10-25T13:15:48.472Z,9.53
2022-10-25T13:18:29.735Z,9.87
2022-10-25T13:21:05.183Z,12.60
2022-10-25T13:23:53.751Z,8.13
2022-10-25T13:26:25.737Z,6.90
2022-10-25T13:29:01.818Z,7.33
2022-10-25T13:31:40.294Z,6.83
2022-10-25T13:34:17.074Z,8.30
2022-10-25T13:36:58.276Z,7.27
2022-10-25T13:39:45.630Z,5.67
2022-10-25T13:42:21.042Z,7.53
2022-10-25T13:45:09.091Z,8.80
2022-10-25T13:47:50.513Z,6.90
2022-10-25T13:50:33.077Z,8.10
2022-10-25T13:53:08.758Z,8.60
2022-10-25T13:55:40.711Z,7.70
2022-10-25T13:58:32.637Z,6.58
2022-10-25T14:01:22.102Z,7.47
2022-10-25T14:04:10.793Z,5.60
2022-10-25T14:06:42.335Z,7.40
2022-10-25T14:09:36.332Z,7.33
2022-10-25T14:12:15.610Z,7.95
2022-10-25T14:14:54.246Z,6.33
2022-10-25T14:17:29.680Z,5.93
2022-10-25T14:20:02.322Z,6.80
2022-10-25T14:22:35.248Z,6.30
2022-10-25T14:25:25.305Z,8.73
2022-10-25T14:28:10.356Z,8.57
2022-10-25T14:30:45.237Z,7.40
2022-10-25T14:33:39.281Z,7.33
2022-10-25T14:36:22.265Z,7.95
2022-10-25T14:39:00.944Z,8.47
2022-10-25T14:41:33.061Z,7.30
2022-10-25T14:44:03.933Z,7.53
2022-10-25T14:46:34.049Z,6.30
2022-10-25T14:49:03.966Z,8.70
2022-10-25T14:51:38.949Z,6.95
2022-10-25T14:54:16.670Z,4.87
2022-10-25T14:56:49.472Z,9.60
2022-10-25T14:59:43.193Z,8.20
2022-10-25T15:02:28.435Z,7.65
2022-10-25T15:05:00.109Z,8.70
2022-10-25T15:07:35.782Z,7.37
2022-10-25T15:10:07.437Z,10.30
2022-10-25T15:12:37.153Z,7.67
2022-10-25T15:15:22.617Z,8.63
2022-10-25T15:17:53.392Z,9.65
2022-10-25T15:20:28.960Z,8.45
2022-10-25T15:23:07.207Z,9.43
2022-10-25T15:25:39.200Z,7.77
2022-10-25T15:28:13.812Z,9.00
2022-10-25T15:30:52.095Z,8.77
2022-10-25T15:33:27.743Z,9.93
2022-10-25T15:36:00.320Z,5.83
2022-10-25T15:39:05.290Z,10.03
2022-10-25T15:41:07.319Z,10.63
2022-10-25T15:43:37.060Z,5.77
2022-10-25T15:46:10.303Z,7.78
2022-10-25T15:48:43.268Z,11.73
2022-10-25T15:51:13.362Z,10.93
2022-10-25T15:53:43.136Z,7.00
2022-10-25T15:56:15.405Z,8.18
2022-10-25T15:58:45.487Z,9.10
2022-10-25T16:01:15.804Z,5.20
2022-10-25T16:03:45.638Z,10.70
2022-10-25T16:06:15.632Z,5.78
2022-10-25T16:08:45.713Z,12.47
2022-10-25T16:11:18.612Z,10.00
2022-10-25T16:13:51.312Z,9.00
2022-10-25T16:16:45.359Z,9.15
2022-10-25T16:19:03.605Z,6.30
2022-10-25T16:21:33.228Z,9.07
2022-10-25T16:24:02.963Z,13.43
2022-10-25T16:26:44.440Z,8.50
2022-10-25T16:29:17.185Z,9.00
2022-10-25T16:31:47.259Z,11.57
2022-10-25T16:34:18.633Z,9.87
2022-10-25T16:36:50.426Z,7.90
2022-10-25T16:39:20.296Z,10.10
2022-10-25T16:41:51.469Z,5.85
2022-10-25T16:44:21.339Z,7.50
2022-10-25T16:46:51.067Z,9.83
2022-10-25T16:49:20.822Z,9.23
2022-10-25T16:51:52.244Z,9.50
2022-10-25T16:54:24.252Z,10.98
2022-10-25T16:56:53.460Z,10.93
2022-10-25T16:59:23.323Z,10.20
2022-10-25T17:01:56.645Z,10.60
2022-10-25T17:04:26.798Z,11.90
2022-10-25T17:06:56.587Z,18.50
2022-10-25T17:09:26.372Z,25.50
2022-10-25T17:11:56.219Z,33.73
2022-10-25T17:14:25.930Z,18.10
2022-10-25T17:17:00.780Z,8.28
2022-10-25T17:19:27.498Z,8.37
2022-10-25T17:21:57.438Z,10.70
2022-10-25T17:24:27.556Z,10.32
2022-10-25T17:26:57.450Z,8.77
2022-10-25T17:29:27.265Z,11.03
2022-10-25T17:31:57.158Z,6.17
2022-10-25T17:34:26.997Z,7.50
2022-10-25T17:36:56.807Z,9.33
2022-10-25T17:39:26.727Z,8.43
2022-10-25T17:41:56.503Z,6.20
2022-10-25T17:44:26.218Z,10.08
2022-10-25T17:46:58.329Z,8.20
2022-10-25T17:49:27.464Z,12.67
2022-10-25T17:51:57.272Z,7.83
2022-10-25T17:54:26.839Z,10.33
2022-10-25T17:56:58.218Z,10.73
2022-10-25T17:59:28.952Z,9.43
2022-10-25T18:01:59.310Z,10.40
2022-10-25T18:04:41.825Z,8.87
2022-10-25T18:07:00.762Z,10.83
2022-10-25T18:09:30.488Z,8.67
2022-10-25T18:12:00.241Z,8.40
2022-10-25T18:14:30.022Z,7.63
2022-10-25T18:17:00.550Z,7.83
2022-10-25T18:19:30.049Z,7.85
2022-10-25T18:22:00.650Z,7.45
2022-10-25T18:24:30.193Z,7.93
2022-10-25T18:27:00.163Z,8.70
2022-10-25T18:29:29.923Z,10.00
2022-10-25T18:31:59.649Z,7.47
2022-10-25T18:34:29.762Z,5.67
2022-10-25T18:36:59.507Z,6.10
2022-10-25T18:39:29.313Z,8.53
2022-10-25T18:41:59.059Z,8.07
2022-10-25T18:44:28.909Z,9.47
2022-10-25T18:46:58.739Z,8.07
2022-10-25T18:49:28.497Z,9.20
2022-10-25T18:51:59.009Z,7.13
2022-10-25T18:54:28.754Z,6.70
2022-10-25T18:56:58.513Z,7.77
2022-10-25T18:59:28.254Z,10.77
2022-10-25T19:01:58.527Z,12.47
2022-10-25T19:04:28.256Z,10.08
2022-10-25T19:06:58.009Z,8.30
2022-10-25T19:09:27.738Z,10.00
2022-10-25T19:11:57.485Z,9.57
2022-10-25T19:14:27.154Z,8.65
2022-10-25T19:16:56.903Z,7.93
2022-10-25T19:19:26.836Z,21.45
2022-10-25T19:21:58.065Z,11.63
2022-10-25T19:24:28.566Z,6.10
2022-10-25T19:26:58.341Z,9.53
2022-10-25T19:29:28.117Z,11.17
2022-10-25T19:31:57.873Z,11.60
2022-10-25T19:34:27.620Z,10.32
2022-10-25T19:36:57.740Z,12.23
2022-10-25T19:39:27.545Z,14.27
2022-10-25T19:41:57.283Z,11.77
2022-10-25T19:44:26.965Z,13.27
2022-10-25T19:46:56.697Z,15.73
2022-10-25T19:49:26.432Z,15.37
2022-10-25T19:51:56.242Z,14.07
2022-10-25T19:54:25.837Z,15.10
2022-10-25T19:56:55.588Z,14.70
2022-10-25T19:59:25.684Z,13.98
2022-10-25T20:01:55.652Z,15.37
2022-10-25T20:04:25.798Z,10.82
2022-10-25T20:06:55.554Z,13.77
2022-10-25T20:09:25.321Z,10.20
2022-10-25T20:11:55.052Z,12.07
2022-10-25T20:14:24.512Z,11.27
2022-10-25T20:16:54.551Z,12.50
2022-10-25T20:19:24.595Z,15.23
2022-10-25T20:21:54.592Z,15.60
2022-10-25T20:24:24.539Z,14.78
2022-10-25T20:26:54.284Z,12.07
2022-10-25T20:29:25.112Z,14.40
2022-10-25T20:31:54.828Z,14.73
2022-10-25T20:34:24.278Z,15.60
2022-10-25T20:36:54.063Z,12.30
2022-10-25T20:39:23.827Z,12.27
2022-10-25T20:41:53.604Z,16.83
2022-10-25T20:44:23.160Z,11.28
2022-10-25T20:46:52.892Z,11.27
2022-10-25T20:49:22.651Z,13.50
2022-10-25T20:51:52.381Z,11.30
2022-10-25T20:54:22.200Z,10.50
2022-10-25T20:56:51.962Z,11.67
2022-10-25T20:59:21.754Z,11.70
2022-10-25T21:01:51.677Z,13.27
2022-10-25T21:04:26.121Z,9.53
2022-10-25T21:06:53.291Z,12.23
2022-10-25T21:09:23.044Z,13.90
2022-10-25T21:11:54.332Z,10.53
2022-10-25T21:14:24.145Z,12.20
2022-10-25T21:16:53.896Z,10.33
2022-10-25T21:19:23.630Z,10.93
2022-10-25T21:21:53.404Z,10.40
2022-10-25T21:24:23.201Z,13.67
2022-10-25T21:26:54.415Z,16.00
2022-10-25T21:29:24.538Z,10.23
2022-10-25T21:31:54.276Z,11.43
2022-10-25T21:34:24.025Z,16.85
2022-10-25T21:36:54.420Z,14.10
2022-10-25T21:39:24.428Z,14.90
2022-10-25T21:41:54.733Z,10.20
2022-10-25T21:44:24.262Z,11.70
2022-10-25T21:46:54.172Z,18.67
2022-10-25T21:49:23.903Z,11.87
2022-10-25T21:51:53.702Z,13.13
2022-10-25T21:54:24.505Z,12.00
2022-10-25T21:56:55.076Z,11.45
2022-10-25T21:59:24.992Z,14.00
2022-10-25T22:01:55.601Z,9.03
2022-10-25T22:04:27.079Z,8.43
2022-10-25T22:06:56.825Z,9.63
2022-10-25T22:09:26.553Z,14.37
2022-10-25T22:11:56.285Z,11.97
2022-10-25T22:14:26.300Z,11.22
2022-10-25T22:16:56.023Z,8.30
2022-10-25T22:19:25.833Z,12.33
2022-10-25T22:21:55.640Z,11.53
2022-10-25T22:24:25.096Z,8.43
2022-10-25T22:26:54.803Z,11.47
2022-10-25T22:29:24.541Z,11.37
2022-10-25T22:31:54.254Z,11.40
2022-10-25T22:34:24.053Z,8.33
2022-10-25T22:36:53.772Z,12.23
2022-10-25T22:39:23.561Z,12.27
2022-10-25T22:41:54.653Z,10.20
2022-10-25T22:44:24.132Z,11.65
2022-10-25T22:46:54.229Z,9.83
2022-10-25T22:49:23.962Z,8.87
2022-10-25T22:51:53.699Z,16.87
2022-10-25T22:54:23.122Z,11.15
2022-10-25T22:56:52.851Z,9.37
2022-10-25T22:59:22.762Z,9.17
2022-10-25T23:01:53.587Z,12.23
2022-10-25T23:04:23.086Z,11.07
2022-10-25T23:06:52.822Z,15.10
2022-10-25T23:09:22.635Z,9.93
2022-10-25T23:11:52.357Z,8.27
2022-10-25T23:14:22.050Z,11.17
2022-10-25T23:16:51.848Z,10.60
2022-10-25T23:19:21.578Z,16.83
2022-10-25T23:21:51.383Z,7.07
2022-10-25T23:24:21.152Z,11.30
2022-10-25T23:26:50.914Z,9.73
2022-10-25T23:29:20.709Z,13.00
2022-10-25T23:31:50.456Z,14.83
2022-10-25T23:34:19.949Z,13.27
2022-10-25T23:36:49.746Z,8.60
2022-10-25T23:39:19.499Z,11.73
2022-10-25T23:41:50.880Z,10.67
2022-10-25T23:44:20.327Z,14.60
2022-10-25T23:46:50.064Z,12.40
2022-10-25T23:49:19.873Z,8.27
2022-10-25T23:51:49.937Z,12.90
2022-10-25T23:54:19.698Z,16.10
2022-10-25T23:56:49.752Z,10.28
2022-10-25T23:59:19.912Z,12.55
